Terminal Aerodrome Forecast
Issued by NWS Grand Forks, ND

Home | Current Version | Previous Version | Graphics & Text | Print | Product List | Glossary On
Versions: 1 2 3 4 5 6 7 8 9 10 11 12 13 14 15 16 17 18 19
000
FTUS43 KFGF 210341 AAA
TAFGFK
TAF AMD
KGFK 210341Z 2104/2124 16007KT P6SM VCTS BKN025CB OVC080
      TEMPO 2104/2106 VRB40KT 2SM TSRA BKN015CB OVC025
     FM210700 VRB06KT P6SM SCT250
     FM211200 32006KT P6SM SCT250=

USA.gov is the U.S. government's official web portal to all federal, state and local government web resources and services.